Vineland, NJ (08360)

11:08 AM EDT on April 18, 2015 (GMT -0400)
Ramblewood | Change Station
CLOSE
Current Station
Personal Weather Station
Location: Vineland, NJ
Elevation: 110 ft
Nearby Weather Stations

Elev 110 ft 39.50 °N, 75.01 °W | Updated 4 seconds ago

Clear
Clear
80.2 °F
Feels Like 81 °F
N
6.9
Wind Variable Wind from NNE
Gusts 6.9 mph

Today
High -- | Low -- °F
--% Chance of Precip.
Yesterday
High -- | Low -- °F
Precip. -- in
6:18 AM 7:40 PM
Waning Crescent, 0% visible
Pressure 30.01 in
Visibility 10.0 miles
Clouds Clear
Heat Index 81 °F
Dew Point 59 °F
Humidity 48%
Rainfall 0.00 in
Snow Depth Not available.
UV 8 out of 12
Pollen 11.30 out of 12
Ozone Good
PM2.5 Moderate
Flu Activity Regional
METAR KMIV 181454Z AUTO VRB04KT 10SM CLR 22/07 A3002 RMK AO2 SLP163 T02170067 50000

More Conditions Fewer Conditions

Pressure 30.01 in
Visibility 10.0 miles
Clouds Clear
Heat Index 81 °F
Dew Point 59 °F
Humidity 48%
Rainfall 0.00 in
Snow Depth Not available.
UV 8 out of 12
Pollen 11.30 out of 12
Ozone Good
PM2.5 Moderate
Flu Activity Regional
METAR KMIV 181454Z AUTO VRB04KT 10SM CLR 22/07 A3002 RMK AO2 SLP163 T02170067 50000

More Conditions Fewer Conditions

10-Day Weather Forecast

Almanac

Astronomy

Apr. 18, 2015 Rise Set
Actual Time 6:18 AM EDT 7:40 PM EDT
Civil Twilight 5:50 AM EDT 8:08 PM EDT
Nautical Twilight 5:17 AM EDT 8:42 PM EDT
Astronomical Twilight 4:42 AM EDT 9:17 PM EDT
Moon 6:16 AM EDT 7:45 PM EDT
Length of Visible Light 14h 17m
Length of Day
13h 21m
Tomorrow will be 2m 26s longer.
Waning Crescent, 0% of the Moon is Illuminated
Today
Waning Crescent
Apr 18
New
Apr 25
First Quarter
May 3
Full
May 11
Last Quarter

Today's Extremes

State Highs State Lows

Community

WunderPhotos

Upload Photos

1,814,424 photos uploaded!

Nearby

Air Quality

  Air Quality AQ Index Pollutant
Yesterday Good
OZONE
Yesterday Good
PM2.5
Current Moderate
PM2.5
Current Good
OZONE
Saturday Good
PM2.5
Saturday Good
OZONE
Sunday Good
PM2.5
Sunday Good
OZONE
Monday Good
PM2.5
Monday Good
OZONE

Snow Depth

Station Depth Elevation
No new snow has been reported.

Earthquake Activity

City Distance Mag. Time & Date
No recent earthquake activity has been reported nearby.
Minimum magnitude displayed is 2.5.

Coastal Water Temperatures

Place Temperature
Cape May, NJ 53.1 °F
Lewes, DE 50.0 °F

Nearby Weather Stations